createdAt,value
2017-12-21T00:02:17.997Z,3.90
2017-12-21T00:04:45.516Z,3.90
2017-12-21T00:07:13.070Z,3.80
2017-12-21T00:09:41.396Z,3.60
2017-12-21T00:12:08.930Z,3.60
2017-12-21T00:14:37.226Z,3.80
2017-12-21T00:17:04.785Z,3.80
2017-12-21T00:19:32.299Z,3.80
2017-12-21T00:21:59.838Z,3.90
2017-12-21T00:24:27.485Z,4.00
2017-12-21T00:26:55.008Z,4.00
2017-12-21T00:29:23.291Z,4.10
2017-12-21T00:31:51.593Z,4.20
2017-12-21T00:34:19.139Z,4.20
2017-12-21T00:36:46.674Z,4.20
2017-12-21T00:39:14.980Z,4.30
2017-12-21T00:41:42.763Z,4.30
2017-12-21T00:44:10.286Z,4.30
2017-12-21T00:46:37.834Z,4.40
2017-12-21T00:49:06.120Z,4.40
2017-12-21T00:51:33.634Z,4.40
2017-12-21T00:54:01.168Z,4.30
2017-12-21T00:56:28.697Z,4.30
2017-12-21T00:58:56.215Z,4.30
2017-12-21T01:01:23.765Z,4.30
2017-12-21T01:03:51.284Z,4.30
2017-12-21T01:06:18.814Z,4.30
2017-12-21T01:08:47.132Z,4.30
2017-12-21T01:11:14.652Z,4.30
2017-12-21T01:13:42.935Z,3.90
2017-12-21T01:16:11.237Z,3.80
2017-12-21T01:18:38.751Z,3.80
2017-12-21T01:21:07.036Z,3.60
2017-12-21T01:23:35.357Z,3.60
2017-12-21T01:26:02.893Z,3.60
2017-12-21T01:28:30.416Z,3.60
2017-12-21T01:30:57.965Z,3.50
2017-12-21T01:33:25.499Z,3.50
2017-12-21T01:35:53.030Z,3.40
2017-12-21T01:38:20.571Z,3.40
2017-12-21T01:40:48.858Z,3.30
2017-12-21T01:43:17.280Z,3.40
2017-12-21T01:45:45.105Z,3.40
2017-12-21T01:48:12.619Z,3.40
2017-12-21T01:50:40.142Z,3.50
2017-12-21T01:53:07.691Z,3.50
2017-12-21T01:55:35.222Z,3.50
2017-12-21T01:58:03.514Z,3.60
2017-12-21T02:00:31.066Z,3.60
2017-12-21T02:02:58.602Z,3.70
2017-12-21T02:05:26.898Z,3.60
2017-12-21T02:07:55.213Z,3.60
2017-12-21T02:10:22.727Z,3.60
2017-12-21T02:12:51.027Z,3.80
2017-12-21T02:15:18.578Z,3.80
2017-12-21T02:17:46.110Z,3.90
2017-12-21T02:20:14.406Z,4.00
2017-12-21T02:22:41.947Z,3.90
2017-12-21T02:25:10.258Z,4.00
2017-12-21T02:27:37.772Z,4.00
2017-12-21T02:30:05.314Z,4.10
2017-12-21T02:32:32.858Z,4.10
2017-12-21T02:35:00.372Z,4.20
2017-12-21T02:37:27.981Z,4.30
2017-12-21T02:39:55.507Z,4.30
2017-12-21T02:42:23.038Z,4.30
2017-12-21T02:44:51.341Z,4.30
2017-12-21T02:47:19.110Z,4.30
2017-12-21T02:49:46.632Z,4.30
2017-12-21T02:52:14.941Z,4.30
2017-12-21T02:54:42.463Z,4.30
2017-12-21T02:57:09.989Z,4.30
2017-12-21T02:59:37.527Z,4.10
2017-12-21T03:02:05.039Z,4.10
2017-12-21T03:04:33.323Z,4.20
2017-12-21T03:07:01.652Z,4.20
2017-12-21T03:09:29.181Z,4.20
2017-12-21T03:11:56.695Z,4.20
2017-12-21T03:14:24.241Z,4.20
2017-12-21T03:16:51.775Z,4.20
2017-12-21T03:19:19.311Z,4.20
2017-12-21T03:21:47.113Z,4.20
2017-12-21T03:24:14.628Z,4.20
2017-12-21T03:26:42.162Z,4.20
2017-12-21T03:29:10.467Z,4.10
2017-12-21T03:31:37.983Z,4.10
2017-12-21T03:34:06.536Z,4.00
2017-12-21T03:36:34.719Z,4.00
2017-12-21T03:39:02.236Z,3.90
2017-12-21T03:41:29.766Z,3.90
2017-12-21T03:43:57.318Z,3.90
2017-12-21T03:46:24.853Z,4.00
2017-12-21T03:48:52.381Z,3.90
2017-12-21T03:51:19.919Z,3.90
2017-12-21T03:53:48.200Z,3.90
2017-12-21T03:56:15.782Z,3.90
2017-12-21T03:58:43.334Z,3.90
2017-12-21T04:01:11.076Z,4.00
2017-12-21T04:03:39.374Z,4.00
2017-12-21T04:06:06.907Z,4.00
2017-12-21T04:08:35.224Z,3.90
2017-12-21T04:11:02.757Z,3.90
2017-12-21T04:13:30.324Z,3.90
2017-12-21T04:15:57.847Z,3.80
2017-12-21T04:18:25.363Z,3.80
2017-12-21T04:20:52.909Z,3.80
2017-12-21T04:23:20.698Z,3.90
2017-12-21T04:25:48.234Z,3.90
2017-12-21T04:28:15.777Z,4.00
2017-12-21T04:30:43.360Z,4.10
2017-12-21T04:33:10.893Z,4.20
2017-12-21T04:35:38.445Z,4.30
2017-12-21T04:38:06.729Z,4.30
2017-12-21T04:40:34.261Z,4.30
2017-12-21T04:43:01.816Z,4.30
2017-12-21T04:45:29.327Z,4.20
2017-12-21T04:47:56.855Z,4.20
2017-12-21T04:50:24.395Z,4.20
2017-12-21T04:52:51.912Z,4.20
2017-12-21T04:55:19.461Z,4.20
2017-12-21T04:57:47.014Z,4.10
2017-12-21T05:00:14.550Z,4.20
2017-12-21T05:02:42.832Z,4.30
2017-12-21T05:05:10.368Z,4.30
2017-12-21T05:07:38.665Z,4.30
2017-12-21T05:10:06.201Z,4.30
2017-12-21T05:12:34.500Z,4.20
2017-12-21T05:15:02.023Z,4.10
2017-12-21T05:17:29.561Z,4.10
2017-12-21T05:19:57.109Z,4.10
2017-12-21T05:22:24.631Z,4.20
2017-12-21T05:24:52.161Z,4.30
2017-12-21T05:27:19.714Z,4.30
2017-12-21T05:29:47.231Z,4.20
2017-12-21T05:32:14.765Z,4.10
2017-12-21T05:34:42.573Z,4.20
2017-12-21T05:37:10.331Z,4.10
2017-12-21T05:39:37.848Z,4.10
2017-12-21T05:42:06.146Z,4.00
2017-12-21T05:44:33.664Z,4.00
2017-12-21T05:47:01.965Z,3.90
2017-12-21T05:49:29.514Z,3.90
2017-12-21T05:51:58.077Z,4.10
2017-12-21T05:54:25.595Z,4.10
2017-12-21T05:56:53.146Z,4.20
2017-12-21T05:59:20.686Z,4.10
2017-12-21T06:01:48.209Z,4.10
2017-12-21T06:04:15.763Z,4.20
2017-12-21T06:06:43.294Z,4.20
2017-12-21T06:09:10.815Z,4.30
2017-12-21T06:11:38.361Z,4.40
2017-12-21T06:14:06.658Z,4.60
2017-12-21T06:16:34.190Z,4.60
2017-12-21T06:19:02.511Z,4.50
2017-12-21T06:21:30.027Z,4.50
2017-12-21T06:23:58.308Z,4.70
2017-12-21T06:26:26.626Z,4.70
2017-12-21T06:28:54.167Z,4.70
2017-12-21T06:31:21.962Z,4.70
2017-12-21T06:33:49.495Z,4.50
2017-12-21T06:36:17.026Z,4.40
2017-12-21T06:38:45.311Z,4.30
2017-12-21T06:41:13.630Z,4.10
2017-12-21T06:43:41.168Z,4.10
2017-12-21T06:46:08.705Z,4.20
2017-12-21T06:48:36.253Z,4.00
2017-12-21T06:51:04.539Z,4.00
2017-12-21T06:53:32.064Z,3.90
2017-12-21T06:56:00.402Z,3.90
2017-12-21T06:58:27.934Z,3.90
2017-12-21T07:00:55.451Z,4.00
2017-12-21T07:03:22.999Z,3.90
2017-12-21T07:05:50.537Z,4.00
2017-12-21T07:08:18.450Z,4.10
2017-12-21T07:10:46.764Z,4.40
2017-12-21T07:13:14.285Z,4.30
2017-12-21T07:15:41.818Z,4.50
2017-12-21T07:18:09.359Z,4.40
2017-12-21T07:20:37.241Z,4.30
2017-12-21T07:23:04.760Z,4.10
2017-12-21T07:25:32.314Z,4.20
2017-12-21T07:28:00.087Z,4.20
2017-12-21T07:30:27.625Z,4.30
2017-12-21T07:32:55.946Z,4.30
2017-12-21T07:35:23.583Z,4.30
2017-12-21T07:37:51.119Z,4.40
2017-12-21T07:40:20.007Z,4.50
2017-12-21T07:42:48.310Z,4.60
2017-12-21T07:45:15.839Z,4.60
2017-12-21T07:47:44.143Z,4.70
2017-12-21T07:50:11.664Z,4.70
2017-12-21T07:52:39.184Z,4.70
2017-12-21T07:55:06.719Z,4.70
2017-12-21T07:57:34.239Z,4.60
2017-12-21T08:00:01.756Z,4.60
2017-12-21T08:02:29.296Z,4.50
2017-12-21T08:04:56.830Z,4.50
2017-12-21T08:07:25.168Z,4.40
2017-12-21T08:09:52.683Z,4.40
2017-12-21T08:12:20.205Z,4.40
2017-12-21T08:14:47.727Z,4.30
2017-12-21T08:17:15.264Z,4.30
2017-12-21T08:19:42.789Z,4.30
2017-12-21T08:22:11.087Z,4.30
2017-12-21T08:24:38.665Z,4.30
2017-12-21T08:27:06.197Z,4.30
2017-12-21T08:29:34.505Z,4.60
2017-12-21T08:32:02.044Z,4.50
2017-12-21T08:34:29.575Z,4.70
2017-12-21T08:36:57.873Z,4.50
2017-12-21T08:39:25.568Z,4.50
2017-12-21T08:41:53.084Z,4.60
2017-12-21T08:44:21.386Z,4.80
2017-12-21T08:46:48.938Z,4.80
2017-12-21T08:49:16.457Z,4.90
2017-12-21T08:51:44.763Z,4.90
2017-12-21T08:54:13.169Z,4.90
2017-12-21T08:56:40.688Z,5.00
2017-12-21T08:59:08.241Z,5.00
2017-12-21T09:01:36.547Z,5.10
2017-12-21T09:04:04.078Z,5.10
2017-12-21T09:06:32.359Z,5.00
2017-12-21T09:09:00.674Z,5.00
2017-12-21T09:11:28.196Z,5.00
2017-12-21T09:13:56.498Z,5.00
2017-12-21T09:16:24.039Z,5.00
2017-12-21T09:18:51.566Z,4.80
2017-12-21T09:21:19.097Z,4.70
2017-12-21T09:23:47.463Z,4.60
2017-12-21T09:26:15.024Z,4.60
2017-12-21T09:28:42.594Z,4.60
2017-12-21T09:31:10.143Z,4.70
2017-12-21T09:33:37.725Z,4.70
2017-12-21T09:36:05.276Z,4.70
2017-12-21T09:38:32.822Z,4.70
2017-12-21T09:41:00.355Z,4.90
2017-12-21T09:43:27.881Z,5.00
2017-12-21T09:45:55.462Z,5.10
2017-12-21T09:48:22.992Z,5.20
2017-12-21T09:50:50.537Z,5.20
2017-12-21T09:53:18.170Z,5.10
2017-12-21T09:55:45.713Z,5.00
2017-12-21T09:58:13.286Z,5.00
2017-12-21T10:00:40.828Z,5.00
2017-12-21T10:03:08.365Z,5.00
2017-12-21T10:05:36.693Z,4.80
2017-12-21T10:08:04.230Z,4.80
2017-12-21T10:10:32.120Z,4.90
2017-12-21T10:13:00.178Z,5.00
2017-12-21T10:15:28.457Z,5.00
2017-12-21T10:17:56.028Z,5.10
2017-12-21T10:20:24.185Z,5.20
2017-12-21T10:22:53.444Z,5.40
2017-12-21T10:25:21.060Z,5.40
2017-12-21T10:27:49.044Z,5.50
2017-12-21T10:30:17.390Z,5.70
2017-12-21T10:32:44.951Z,5.60
2017-12-21T10:35:12.472Z,5.70
2017-12-21T10:37:40.906Z,5.80
2017-12-21T10:40:09.337Z,5.80
2017-12-21T10:42:37.177Z,5.80
2017-12-21T10:45:05.565Z,5.80
2017-12-21T10:47:34.213Z,5.90
2017-12-21T10:50:01.746Z,5.80
2017-12-21T10:52:31.786Z,5.80
2017-12-21T10:55:00.314Z,5.90
2017-12-21T10:57:28.191Z,5.80
2017-12-21T11:00:00.267Z,5.80
2017-12-21T11:02:31.823Z,5.80
2017-12-21T11:04:59.428Z,5.80
2017-12-21T11:07:28.470Z,5.80
2017-12-21T11:09:56.283Z,5.80
2017-12-21T11:12:23.820Z,5.80
2017-12-21T11:14:51.815Z,5.80
2017-12-21T11:17:19.760Z,5.70
2017-12-21T11:19:47.313Z,5.60
2017-12-21T11:22:14.833Z,5.60
2017-12-21T11:24:43.124Z,5.80
2017-12-21T11:27:10.676Z,5.80
2017-12-21T11:29:38.191Z,5.80
2017-12-21T11:32:05.720Z,5.90
2017-12-21T11:34:33.281Z,5.90
2017-12-21T11:37:00.801Z,5.90
2017-12-21T11:39:29.088Z,5.90
2017-12-21T11:41:56.661Z,5.90
2017-12-21T11:44:24.184Z,5.90
2017-12-21T11:46:52.827Z,5.80
2017-12-21T11:49:20.370Z,5.80
2017-12-21T11:51:48.248Z,5.80
2017-12-21T11:54:15.767Z,5.80
2017-12-21T11:56:43.309Z,5.80
2017-12-21T11:59:11.592Z,5.80
2017-12-21T12:01:39.876Z,5.80
2017-12-21T12:04:08.197Z,5.80
2017-12-21T12:06:35.715Z,5.80
2017-12-21T12:09:03.254Z,5.80
2017-12-21T12:11:31.570Z,5.90
2017-12-21T12:13:59.254Z,5.90
2017-12-21T12:16:26.771Z,5.90
2017-12-21T12:18:54.329Z,5.90
2017-12-21T12:21:21.847Z,5.90
2017-12-21T12:23:49.378Z,5.90
2017-12-21T12:26:16.996Z,5.80
2017-12-21T12:28:45.629Z,5.80
2017-12-21T12:31:13.151Z,5.80
2017-12-21T12:33:40.944Z,5.80
2017-12-21T12:36:08.615Z,5.80
2017-12-21T12:38:36.208Z,5.80
2017-12-21T12:41:03.772Z,5.80
2017-12-21T12:43:32.070Z,5.90
2017-12-21T12:45:59.611Z,5.90
2017-12-21T12:48:27.951Z,5.90
2017-12-21T12:50:55.491Z,5.90
2017-12-21T12:53:23.471Z,5.90
2017-12-21T12:55:51.021Z,6.00
2017-12-21T12:58:18.544Z,6.00
2017-12-21T13:00:47.076Z,6.10
2017-12-21T13:03:14.619Z,6.10
2017-12-21T13:05:42.140Z,6.00
2017-12-21T13:08:10.423Z,6.00
2017-12-21T13:10:37.978Z,6.00
2017-12-21T13:13:05.510Z,6.10
2017-12-21T13:15:33.845Z,6.10
2017-12-21T13:18:01.620Z,6.10
2017-12-21T13:20:29.153Z,6.10
2017-12-21T13:22:56.685Z,6.10
2017-12-21T13:25:25.005Z,6.00
2017-12-21T13:27:52.524Z,6.10
2017-12-21T13:30:20.807Z,6.00
2017-12-21T13:32:48.369Z,6.00
2017-12-21T13:35:15.929Z,6.10
2017-12-21T13:37:43.512Z,6.10
2017-12-21T13:40:11.288Z,6.10
2017-12-21T13:42:39.052Z,6.00
2017-12-21T13:45:06.568Z,6.00
2017-12-21T13:47:34.890Z,6.00
2017-12-21T13:50:02.419Z,6.00
2017-12-21T13:52:30.213Z,6.10
2017-12-21T13:54:57.757Z,6.10
2017-12-21T13:57:25.293Z,6.10
2017-12-21T13:59:52.837Z,6.10
2017-12-21T14:02:21.308Z,6.10
2017-12-21T14:04:49.592Z,6.10
2017-12-21T14:07:17.883Z,6.10
2017-12-21T14:09:45.443Z,6.10
2017-12-21T14:12:13.070Z,6.20
2017-12-21T14:14:41.405Z,6.10
2017-12-21T14:17:08.947Z,6.10
2017-12-21T14:19:36.483Z,6.20
2017-12-21T14:22:04.767Z,6.10
2017-12-21T14:24:33.392Z,6.10
2017-12-21T14:27:00.928Z,6.10
2017-12-21T14:29:28.446Z,6.10
2017-12-21T14:31:55.984Z,6.10
2017-12-21T14:34:23.496Z,6.10
2017-12-21T14:36:51.035Z,6.10
2017-12-21T14:39:19.361Z,6.10
2017-12-21T14:41:46.884Z,6.10
2017-12-21T14:44:14.423Z,6.10
2017-12-21T14:46:42.738Z,6.10
2017-12-21T14:49:10.262Z,6.10
2017-12-21T14:51:38.811Z,6.10
2017-12-21T14:54:06.701Z,6.10
2017-12-21T14:56:35.335Z,6.10
2017-12-21T14:59:03.117Z,6.10
2017-12-21T15:01:30.660Z,6.10
2017-12-21T15:03:58.203Z,6.10
2017-12-21T15:06:25.743Z,6.10
2017-12-21T15:08:53.323Z,6.10
2017-12-21T15:11:20.884Z,6.10
2017-12-21T15:13:48.404Z,6.10
2017-12-21T15:16:16.731Z,6.10
2017-12-21T15:18:44.251Z,6.10
2017-12-21T15:21:12.574Z,6.10
2017-12-21T15:23:40.144Z,6.10
2017-12-21T15:26:07.663Z,6.10
2017-12-21T15:28:35.184Z,6.10
2017-12-21T15:31:02.737Z,6.20
2017-12-21T15:33:30.261Z,6.20
2017-12-21T15:35:57.793Z,6.20
2017-12-21T15:38:25.333Z,6.20
2017-12-21T15:40:53.620Z,6.20
2017-12-21T15:43:21.144Z,6.20
2017-12-21T15:45:49.482Z,6.20
2017-12-21T15:48:17.162Z,6.20
2017-12-21T15:50:44.682Z,6.30
2017-12-21T15:53:12.249Z,6.30
2017-12-21T15:55:41.250Z,6.30
2017-12-21T15:58:08.831Z,6.20
2017-12-21T16:00:38.616Z,6.30
2017-12-21T16:03:06.224Z,6.30
2017-12-21T16:05:33.740Z,6.30
2017-12-21T16:08:01.289Z,6.30
2017-12-21T16:10:28.813Z,6.30
2017-12-21T16:12:57.108Z,6.30
2017-12-21T16:15:24.655Z,6.30
2017-12-21T16:17:53.358Z,6.30
2017-12-21T16:20:20.910Z,6.20
2017-12-21T16:22:48.451Z,6.30
2017-12-21T16:25:16.910Z,6.30
2017-12-21T16:27:45.449Z,6.30
2017-12-21T16:30:12.991Z,6.30
2017-12-21T16:32:40.525Z,6.30
2017-12-21T16:35:08.040Z,6.30
2017-12-21T16:37:35.583Z,6.30
2017-12-21T16:40:03.123Z,6.30
2017-12-21T16:42:30.656Z,6.30
2017-12-21T16:45:01.438Z,6.20
2017-12-21T16:47:29.136Z,6.20
2017-12-21T16:49:56.666Z,6.20
2017-12-21T16:52:24.204Z,6.20
2017-12-21T16:54:52.174Z,6.20
2017-12-21T16:57:20.587Z,6.30
2017-12-21T16:59:48.129Z,6.20
2017-12-21T17:02:15.670Z,6.20
2017-12-21T17:04:43.224Z,6.30
2017-12-21T17:07:10.974Z,6.30
2017-12-21T17:09:39.277Z,6.30
2017-12-21T17:12:06.813Z,6.30
2017-12-21T17:14:35.120Z,6.30
2017-12-21T17:17:02.643Z,6.30
2017-12-21T17:19:30.985Z,6.30
2017-12-21T17:21:58.545Z,6.30
2017-12-21T17:24:26.201Z,6.30
2017-12-21T17:26:55.292Z,6.30
2017-12-21T17:29:22.910Z,6.30
2017-12-21T17:31:50.864Z,6.30
2017-12-21T17:34:19.151Z,6.30
2017-12-21T17:36:46.710Z,6.30
2017-12-21T17:39:14.296Z,6.30
2017-12-21T17:41:41.859Z,6.30
2017-12-21T17:44:09.409Z,6.30
2017-12-21T17:46:36.929Z,6.30
2017-12-21T17:49:05.220Z,6.30
2017-12-21T17:51:32.770Z,6.30
2017-12-21T17:54:01.068Z,6.40
2017-12-21T17:56:33.083Z,6.30
2017-12-21T17:59:06.370Z,6.40
2017-12-21T18:01:36.976Z,6.40
2017-12-21T18:04:05.259Z,6.40
2017-12-21T18:06:32.789Z,6.40
2017-12-21T18:09:00.318Z,6.30
2017-12-21T18:11:29.863Z,6.40
2017-12-21T18:13:58.022Z,6.40
2017-12-21T18:16:25.586Z,6.40
2017-12-21T18:18:53.241Z,6.40
2017-12-21T18:21:20.768Z,6.40
2017-12-21T18:23:49.813Z,6.40
2017-12-21T18:26:18.160Z,6.40
2017-12-21T18:28:47.404Z,6.40
2017-12-21T18:31:14.924Z,6.40
2017-12-21T18:33:42.475Z,6.40
2017-12-21T18:36:10.291Z,6.40
2017-12-21T18:38:37.804Z,6.40
2017-12-21T18:41:05.343Z,6.30
2017-12-21T18:43:35.305Z,6.40
2017-12-21T18:46:02.934Z,6.40
2017-12-21T18:48:31.236Z,6.40
2017-12-21T18:50:58.755Z,6.40
2017-12-21T18:53:27.031Z,6.40
2017-12-21T18:55:55.340Z,6.40
2017-12-21T18:58:23.746Z,6.40
2017-12-21T19:00:51.273Z,6.40
2017-12-21T19:03:19.091Z,6.40
2017-12-21T19:05:47.418Z,6.50
2017-12-21T19:08:17.034Z,6.50
2017-12-21T19:10:45.227Z,6.40
2017-12-21T19:13:12.774Z,6.40
2017-12-21T19:15:40.315Z,6.40
2017-12-21T19:18:07.911Z,6.50
2017-12-21T19:20:35.429Z,6.50
2017-12-21T19:23:02.947Z,6.50
2017-12-21T19:25:30.483Z,6.50
2017-12-21T19:27:58.008Z,6.40
2017-12-21T19:30:25.548Z,6.50
2017-12-21T19:32:53.853Z,6.50
2017-12-21T19:35:21.372Z,6.40
2017-12-21T19:37:49.658Z,6.50
2017-12-21T19:40:17.976Z,6.50
2017-12-21T19:42:45.547Z,6.50
2017-12-21T19:45:13.085Z,6.50
2017-12-21T19:47:40.636Z,6.50
2017-12-21T19:50:08.218Z,6.50
2017-12-21T19:52:35.754Z,6.50
2017-12-21T19:55:03.310Z,6.50
2017-12-21T19:57:30.828Z,6.50
2017-12-21T19:59:59.130Z,6.50
2017-12-21T20:02:26.681Z,6.50
2017-12-21T20:04:55.313Z,6.50
2017-12-21T20:07:22.832Z,6.50
2017-12-21T20:09:50.371Z,6.60
2017-12-21T20:12:18.653Z,6.60
2017-12-21T20:14:47.188Z,6.60
2017-12-21T20:17:14.727Z,6.60
2017-12-21T20:19:42.265Z,6.60
2017-12-21T20:22:09.804Z,6.60
2017-12-21T20:24:38.107Z,6.60
2017-12-21T20:27:05.631Z,6.60
2017-12-21T20:29:33.164Z,6.60
2017-12-21T20:32:00.721Z,6.60
2017-12-21T20:34:28.244Z,6.60
2017-12-21T20:36:55.760Z,6.60
2017-12-21T20:39:23.299Z,6.60
2017-12-21T20:41:50.823Z,6.60
2017-12-21T20:44:18.360Z,6.70
2017-12-21T20:46:46.687Z,6.70
2017-12-21T20:49:14.228Z,6.70
2017-12-21T20:51:41.764Z,6.70
2017-12-21T20:54:09.299Z,6.70
2017-12-21T20:56:37.583Z,6.80
2017-12-21T20:59:05.882Z,6.80
2017-12-21T21:01:33.440Z,6.80
2017-12-21T21:04:00.986Z,6.80
2017-12-21T21:06:28.511Z,6.80
2017-12-21T21:08:56.059Z,6.80
2017-12-21T21:11:23.602Z,6.80
2017-12-21T21:13:51.139Z,6.80
2017-12-21T21:16:18.823Z,6.80
2017-12-21T21:18:46.559Z,6.80
2017-12-21T21:21:14.098Z,6.90
2017-12-21T21:23:42.617Z,6.90
2017-12-21T21:26:10.283Z,6.90
2017-12-21T21:28:39.239Z,6.90
2017-12-21T21:31:06.843Z,6.90
2017-12-21T21:33:34.391Z,6.90
2017-12-21T21:36:01.962Z,6.90
2017-12-21T21:38:29.517Z,6.90
2017-12-21T21:40:57.328Z,6.90
2017-12-21T21:43:25.860Z,6.90
2017-12-21T21:45:53.521Z,6.90
2017-12-21T21:48:21.036Z,6.90
2017-12-21T21:50:49.337Z,6.80
2017-12-21T21:53:17.771Z,6.80
2017-12-21T21:55:46.202Z,6.80
2017-12-21T21:58:13.736Z,6.80
2017-12-21T22:00:41.285Z,6.80
2017-12-21T22:03:09.615Z,6.70
2017-12-21T22:05:37.140Z,6.70
2017-12-21T22:08:04.698Z,6.70
2017-12-21T22:10:32.238Z,6.60
2017-12-21T22:13:00.724Z,6.60
2017-12-21T22:15:29.023Z,6.60
2017-12-21T22:17:56.544Z,6.50
2017-12-21T22:20:24.828Z,6.40
2017-12-21T22:22:53.131Z,6.30
2017-12-21T22:25:20.701Z,6.30
2017-12-21T22:27:48.253Z,6.30
2017-12-21T22:30:16.136Z,6.30
2017-12-21T22:32:43.688Z,6.30
2017-12-21T22:35:11.217Z,6.20
2017-12-21T22:37:39.573Z,6.20
2017-12-21T22:40:07.878Z,6.20
2017-12-21T22:42:35.434Z,6.20
2017-12-21T22:45:02.976Z,6.20
2017-12-21T22:47:31.278Z,6.20
2017-12-21T22:49:58.817Z,6.20
2017-12-21T22:52:27.126Z,6.30
2017-12-21T22:54:54.644Z,6.30
2017-12-21T22:57:22.945Z,6.40
2017-12-21T22:59:50.479Z,6.40
2017-12-21T23:02:18.778Z,6.50
2017-12-21T23:04:46.343Z,6.50
2017-12-21T23:07:13.879Z,6.60
2017-12-21T23:09:42.174Z,6.60
2017-12-21T23:12:09.718Z,6.60
2017-12-21T23:14:38.021Z,6.60
2017-12-21T23:17:05.558Z,6.60
2017-12-21T23:19:33.158Z,6.50
2017-12-21T23:22:00.696Z,6.50
2017-12-21T23:24:28.226Z,6.50
2017-12-21T23:26:56.530Z,6.50
2017-12-21T23:29:24.101Z,6.50
2017-12-21T23:31:51.603Z,6.60
2017-12-21T23:34:19.121Z,6.60
2017-12-21T23:36:46.683Z,6.60
2017-12-21T23:39:14.205Z,6.60
2017-12-21T23:41:41.733Z,6.50
2017-12-21T23:44:09.269Z,6.60
2017-12-21T23:46:37.132Z,6.60
2017-12-21T23:49:04.652Z,6.60
2017-12-21T23:51:32.191Z,6.60
2017-12-21T23:54:00.481Z,6.70
2017-12-21T23:56:28.012Z,6.70
2017-12-21T23:58:55.839Z,6.70
